Jacksonville, IL

9:23 PM CDT on April 26, 2017 (GMT -0500)
Prairie Land | | Change Station
Active Advisory: Flood Warning

Elev 600 ft 39.72 °N, 90.25 °W | Updated 9 seconds ago

Rain
Rain
52.3 °F
Feels Like 52.3 °F
N
3.0
Wind Variable Wind from NW

Today
High -- | Low -- °F
--% Chance of Precip.
Yesterday
High -- | Low -- °F
Precip. -- in
Pressure 29.47 in
Visibility 5.0 miles
Clouds Overcast 500 ft
Dew Point 52 °F
Humidity 98%
Rainfall 0.54 in
Snow Depth Not available.
6:07 AM 7:50 PM
New Moon, 1% visible
METAR KIJX 270215Z AUTO 34008KT 5SM RA OVC005 11/11 A2947 RMK AO2 P0003 T01100105
Pressure 29.47 in
Visibility 5.0 miles
Clouds Overcast 500 ft
Dew Point 52 °F
Humidity 98%
Rainfall 0.54 in
Snow Depth Not available.
6:07 AM 7:50 PM
New Moon, 1% visible
METAR KIJX 270215Z AUTO 34008KT 5SM RA OVC005 11/11 A2947 RMK AO2 P0003 T01100105

Get Your Daily Forecast Email!

Thanks for signing up!

Be on the lookout for a verification email in your inbox.

You'll start receiving severe weather alerts in your inbox..

×

10-Day Weather Forecast

Almanac

Astronomy

Apr. 26, 2017 Rise Set
Actual Time
Civil Twilight
Nautical Twilight
Astronomical Twilight
Moon
Length of Visible Light
Length of Day
Tomorrow will be .
, % of the Moon is Illuminated

Today's Extremes

State Highs State Lows

Community

WunderPhotos

WunderBlog® & News

Nearby

Air Quality

  Air Quality AQ Index Pollutant
Not available.

Snow Depth

Station Depth Elevation

Earthquake Activity

City Distance Mag. Time & Date
Minimum magnitude displayed is 2.5.

Coastal Water Temperatures

Place Temperature

Stations

Nearby Weather Stations

Station Location Temp. Windchill Dew Point Humidity Wind Precip. Elev Updated Type
                   

Watches & Warnings

Flood Warning
Issued: 10:47 AM CDT Apr. 26, 2017 – National Weather Service

The Flood Warning continues for
the Illinois River at Beardstown.
* Until further notice.
* At 945 am Wednesday the stage was 16.4 feet.
* Flood stage is 14.0 feet.
* Minor flooding is occurring and minor flooding is forecast.
* Forecast... the river will continue to fall to a stage of 16.0 feet
by tomorrow morning.



                  Fld observed forecast 6am
location stg stg day time Thu Fri Sat

Illinois River
Beardstown 14 16.4 Wed 10 am 16.0 15.8 15.9



Lat... Lon 4018 9023 4012 9017 4008 9037 3999 9046
      3999 9058 4015 9043


25